createdAt,value
2022-09-14T00:06:58.635Z,96069.30
2022-09-14T00:15:21.522Z,96030.61
2022-09-14T00:23:44.407Z,96005.18
2022-09-14T00:32:07.281Z,95967.88
2022-09-14T00:40:30.274Z,95956.21
2022-09-14T00:48:54.715Z,95953.60
2022-09-14T00:57:19.080Z,95968.70
2022-09-14T01:06:00.817Z,95999.62
2022-09-14T01:14:41.941Z,96055.42
2022-09-14T01:23:29.542Z,96085.35
2022-09-14T01:32:00.597Z,96105.93
2022-09-14T01:40:56.011Z,96117.05
2022-09-14T01:49:25.217Z,96128.55
2022-09-14T01:57:58.625Z,96125.18
2022-09-14T02:06:33.260Z,96114.17
2022-09-14T02:14:56.199Z,96107.48
2022-09-14T02:23:19.525Z,96094.44
2022-09-14T02:32:05.751Z,96065.38
2022-09-14T02:40:44.012Z,95976.02
2022-09-14T02:49:30.645Z,95903.45
2022-09-14T02:58:07.117Z,95930.23
2022-09-14T03:06:30.204Z,95969.39
2022-09-14T03:14:53.319Z,95970.66
2022-09-14T03:23:17.095Z,95965.26
2022-09-14T03:31:39.988Z,95951.88
2022-09-14T03:40:04.992Z,95952.55
2022-09-14T03:48:29.696Z,95946.88
2022-09-14T03:56:54.102Z,95956.27
2022-09-14T04:05:21.582Z,95942.73
2022-09-14T04:13:45.918Z,95921.39
2022-09-14T04:22:08.831Z,95917.81
2022-09-14T04:30:31.712Z,95918.75
2022-09-14T04:38:58.190Z,95960.15
2022-09-14T04:47:21.036Z,96006.63
2022-09-14T04:55:43.864Z,96019.86
2022-09-14T05:04:09.337Z,96052.36
2022-09-14T05:12:32.150Z,96082.08
2022-09-14T05:20:54.979Z,96083.50
2022-09-14T05:29:18.952Z,96021.92
2022-09-14T05:37:41.735Z,95942.14
2022-09-14T05:46:12.779Z,95915.45
2022-09-14T05:54:36.131Z,95924.80
2022-09-14T06:02:58.886Z,95942.37
2022-09-14T06:11:24.685Z,95975.30
2022-09-14T06:19:47.779Z,96024.73
2022-09-14T06:28:10.693Z,96088.65
2022-09-14T06:36:33.485Z,96147.45
2022-09-14T06:44:56.773Z,96193.39
2022-09-14T06:53:19.777Z,96227.96
2022-09-14T07:01:44.916Z,96269.97
2022-09-14T07:10:08.273Z,96312.98
2022-09-14T07:18:34.512Z,96352.46
2022-09-14T07:26:57.734Z,96383.45
2022-09-14T07:35:20.812Z,96404.50
2022-09-14T07:43:44.809Z,96438.88
2022-09-14T07:52:08.939Z,96473.58
2022-09-14T08:00:32.003Z,96564.20
2022-09-14T08:08:56.342Z,96683.14
2022-09-14T08:17:22.230Z,96812.59
2022-09-14T08:25:45.224Z,96981.95
2022-09-14T08:34:08.756Z,97194.62
2022-09-14T08:42:32.420Z,97432.15
2022-09-14T08:50:55.545Z,97599.19
2022-09-14T08:59:46.537Z,97690.77
2022-09-14T09:08:24.735Z,97881.51
2022-09-14T09:16:51.580Z,98094.71
2022-09-14T09:25:25.210Z,98235.74
2022-09-14T09:33:49.800Z,98375.55
2022-09-14T09:42:26.219Z,98388.10
2022-09-14T09:51:06.990Z,98325.19
2022-09-14T09:59:41.089Z,98279.65
2022-09-14T10:08:11.454Z,98296.68
2022-09-14T10:16:41.201Z,98327.30
2022-09-14T10:25:22.385Z,98316.88
2022-09-14T10:33:46.590Z,98261.48
2022-09-14T10:42:27.937Z,98315.92
2022-09-14T11:10:23.899Z,98425.61
2022-09-14T11:18:58.040Z,98323.08
2022-09-14T11:27:29.583Z,98295.56
2022-09-14T11:35:59.017Z,98298.77
2022-09-14T11:44:31.220Z,98384.48
2022-09-14T11:53:14.067Z,98463.90
2022-09-14T12:01:40.043Z,98576.09
2022-09-14T12:10:17.917Z,98666.93
2022-09-14T12:18:43.698Z,98527.36
2022-09-14T12:27:23.272Z,98325.23
2022-09-14T12:35:47.208Z,98187.18
2022-09-14T12:44:37.128Z,98109.52
2022-09-14T12:53:00.028Z,98123.23
2022-09-14T13:01:45.876Z,98238.10
2022-09-14T13:10:31.071Z,98334.83
2022-09-14T13:19:02.052Z,98421.35
2022-09-14T13:27:37.165Z,98396.83
2022-09-14T13:36:02.899Z,98309.69
2022-09-14T13:44:32.249Z,98280.44
2022-09-14T13:53:02.448Z,98280.03
2022-09-14T14:01:29.051Z,98248.45
2022-09-14T14:09:57.627Z,98190.73
2022-09-14T14:18:41.664Z,98153.95
2022-09-14T14:27:04.604Z,98089.74
2022-09-14T14:35:30.922Z,98053.67
2022-09-14T14:43:54.033Z,98042.57
2022-09-14T14:52:17.256Z,98019.91
2022-09-14T15:00:40.505Z,98038.85
2022-09-14T15:09:08.907Z,98059.48
2022-09-14T15:17:31.656Z,97990.59
2022-09-14T15:25:54.593Z,97922.43
2022-09-14T15:34:17.423Z,97890.27
2022-09-14T15:42:40.321Z,97890.48
2022-09-14T15:51:11.630Z,97853.66
2022-09-14T15:59:34.936Z,97766.74
2022-09-14T16:07:59.975Z,97678.75
2022-09-14T16:16:22.924Z,97611.73
2022-09-14T16:24:45.801Z,97566.88
2022-09-14T16:33:08.601Z,97473.45
2022-09-14T16:41:33.091Z,97404.98
2022-09-14T16:49:56.124Z,97319.33
2022-09-14T16:58:19.077Z,97229.85
2022-09-14T17:06:44.727Z,97162.56
2022-09-14T17:15:09.404Z,97046.25
2022-09-14T17:23:33.504Z,96987.55
2022-09-14T17:31:56.634Z,96959.92
2022-09-14T17:40:19.748Z,96897.50
2022-09-14T17:48:43.411Z,96824.34
2022-09-14T17:57:06.708Z,96730.96
2022-09-14T18:05:29.473Z,96655.30
2022-09-14T18:13:52.738Z,96628.42
2022-09-14T18:22:16.866Z,96631.92
2022-09-14T18:30:43.566Z,96595.03
2022-09-14T18:39:06.705Z,96567.67
2022-09-14T18:47:29.794Z,96554.64
2022-09-14T18:55:52.650Z,96533.67
2022-09-14T19:04:16.810Z,96500.30
2022-09-14T19:12:40.597Z,96474.23
2022-09-14T19:21:07.284Z,96465.14
2022-09-14T19:29:32.738Z,96461.23
2022-09-14T19:37:55.693Z,96414.88
2022-09-14T19:46:21.407Z,96357.90
2022-09-14T19:54:44.423Z,96319.02
2022-09-14T20:03:08.285Z,96312.24
2022-09-14T20:11:33.184Z,96275.48
2022-09-14T20:19:56.224Z,96263.98
2022-09-14T20:28:19.516Z,96188.52
2022-09-14T20:36:42.935Z,96120.83
2022-09-14T20:45:06.870Z,96090.69
2022-09-14T20:53:33.579Z,96076.73
2022-09-14T21:01:56.794Z,96081.31
2022-09-14T21:10:19.933Z,96073.12
2022-09-14T21:18:44.722Z,96022.45
2022-09-14T21:27:07.762Z,95987.15
2022-09-14T21:35:33.648Z,95971.52
2022-09-14T21:43:57.744Z,95934.89
2022-09-14T21:52:20.729Z,95912.77
2022-09-14T22:00:43.783Z,95910.59
2022-09-14T22:09:07.788Z,95918.06
2022-09-14T22:17:32.327Z,95898.77
2022-09-14T22:25:55.409Z,95897.38
2022-09-14T22:34:18.371Z,95870.91
2022-09-14T22:42:41.497Z,95837.25
2022-09-14T22:51:06.981Z,95807.04
2022-09-14T22:59:30.038Z,95784.63
2022-09-14T23:07:53.269Z,95778.18
2022-09-14T23:16:19.974Z,95793.02
2022-09-14T23:24:43.201Z,95793.71
2022-09-14T23:33:07.116Z,95808.38
2022-09-14T23:41:30.867Z,95830.85
2022-09-14T23:49:54.260Z,95839.33
2022-09-14T23:58:17.741Z,95854.23
